createdAt,value
2018-12-26T00:00:22.572Z,24.57
2018-12-26T00:03:03.724Z,25.70
2018-12-26T00:05:45.738Z,24.13
2018-12-26T00:08:26.992Z,23.30
2018-12-26T00:11:08.488Z,24.40
2018-12-26T00:13:49.897Z,26.30
2018-12-26T00:16:31.188Z,20.97
2018-12-26T00:19:12.397Z,23.87
2018-12-26T00:21:54.368Z,24.17
2018-12-26T00:24:36.123Z,23.00
2018-12-26T00:27:17.177Z,23.57
2018-12-26T00:29:58.388Z,25.70
2018-12-26T00:32:39.691Z,26.47
2018-12-26T00:35:21.368Z,22.20
2018-12-26T00:38:03.257Z,27.87
2018-12-26T00:40:45.111Z,25.00
2018-12-26T00:43:29.549Z,26.50
2018-12-26T00:46:10.640Z,23.07
2018-12-26T00:48:51.683Z,26.40
2018-12-26T00:51:33.164Z,28.07
2018-12-26T00:54:14.547Z,27.63
2018-12-26T00:56:55.932Z,25.30
2018-12-26T00:59:37.307Z,27.23
2018-12-26T01:02:18.670Z,24.83
2018-12-26T01:05:00.655Z,29.17
2018-12-26T01:11:20.460Z,26.77
2018-12-26T01:14:01.525Z,27.30
2018-12-26T01:16:42.886Z,29.97
2018-12-26T01:19:24.367Z,27.93
2018-12-26T01:22:05.992Z,27.10
2018-12-26T01:24:47.593Z,31.77
2018-12-26T01:27:29.076Z,28.30
2018-12-26T01:30:10.351Z,44.17
2018-12-26T01:32:51.724Z,30.63
2018-12-26T01:35:33.105Z,28.67
2018-12-26T01:38:14.400Z,31.47
2018-12-26T01:40:55.841Z,31.13
2018-12-26T01:43:36.922Z,26.73
2018-12-26T01:46:18.144Z,30.70
2018-12-26T01:48:59.400Z,34.23
2018-12-26T01:51:40.436Z,28.17
2018-12-26T01:54:22.407Z,28.97
2018-12-26T02:00:43.345Z,32.93
2018-12-26T02:03:25.219Z,29.30
2018-12-26T02:06:07.108Z,31.33
2018-12-26T02:08:48.138Z,32.93
2018-12-26T02:11:29.268Z,34.47
2018-12-26T02:14:10.637Z,31.17
2018-12-26T02:16:51.724Z,28.07
2018-12-26T02:19:32.950Z,32.53
2018-12-26T02:25:54.173Z,34.60
2018-12-26T02:28:35.243Z,33.33
2018-12-26T02:31:17.196Z,33.70
2018-12-26T02:33:58.569Z,31.13
2018-12-26T02:36:39.775Z,35.23
2018-12-26T02:39:21.073Z,36.07
2018-12-26T02:42:02.590Z,35.10
2018-12-26T02:44:44.539Z,32.30
2018-12-26T02:47:25.771Z,31.53
2018-12-26T02:50:07.674Z,37.40
2018-12-26T02:52:48.764Z,32.33
2018-12-26T02:55:30.479Z,32.87
2018-12-26T02:58:11.899Z,30.77
2018-12-26T03:00:53.453Z,32.30
2018-12-26T03:03:34.530Z,34.20
2018-12-26T03:06:15.769Z,33.03
2018-12-26T03:08:57.801Z,29.60
2018-12-26T03:11:39.110Z,35.83
2018-12-26T03:14:20.619Z,36.50
2018-12-26T03:17:02.188Z,30.90
2018-12-26T03:19:43.295Z,30.80
2018-12-26T03:22:24.419Z,29.77
2018-12-26T03:25:05.485Z,32.43
2018-12-26T03:27:47.082Z,34.17
2018-12-26T03:30:28.246Z,31.10
2018-12-26T03:33:10.248Z,34.90
2018-12-26T03:35:51.494Z,32.57
2018-12-26T03:38:33.211Z,33.50
2018-12-26T03:41:14.575Z,34.73
2018-12-26T03:43:56.073Z,31.83
2018-12-26T03:46:37.916Z,32.70
2018-12-26T03:49:19.075Z,33.37
2018-12-26T03:52:02.168Z,34.63
2018-12-26T03:54:43.349Z,37.07
2018-12-26T03:57:24.465Z,37.77
2018-12-26T04:00:05.844Z,35.00
2018-12-26T04:02:47.095Z,38.63
2018-12-26T04:05:28.447Z,35.13
2018-12-26T04:08:09.672Z,34.93
2018-12-26T04:10:50.999Z,31.80
2018-12-26T04:13:32.876Z,33.17
2018-12-26T04:16:14.127Z,35.10
2018-12-26T04:18:55.997Z,31.17
2018-12-26T04:21:37.771Z,38.23
2018-12-26T04:24:18.809Z,37.90
2018-12-26T04:26:59.848Z,34.70
2018-12-26T04:29:41.740Z,43.90
2018-12-26T04:32:23.481Z,38.40
2018-12-26T04:35:04.697Z,35.20
2018-12-26T04:37:46.085Z,33.30
2018-12-26T04:40:27.520Z,39.20
2018-12-26T04:43:08.833Z,39.63
2018-12-26T04:45:50.116Z,35.80
2018-12-26T04:48:31.123Z,35.80
2018-12-26T04:54:38.060Z,36.73
2018-12-26T04:57:24.630Z,36.53
2018-12-26T05:00:02.804Z,37.23
2018-12-26T05:02:44.467Z,37.70
2018-12-26T05:05:26.427Z,43.63
2018-12-26T05:08:07.426Z,37.03
2018-12-26T05:10:48.564Z,36.40
2018-12-26T05:13:29.628Z,33.60
2018-12-26T05:16:11.576Z,37.30
2018-12-26T05:18:53.521Z,40.17
2018-12-26T05:21:34.580Z,40.63
2018-12-26T05:24:15.640Z,36.43
2018-12-26T05:26:56.920Z,34.77
2018-12-26T05:29:38.156Z,38.20
2018-12-26T05:32:19.557Z,36.97
2018-12-26T05:35:00.844Z,38.07
2018-12-26T05:37:41.904Z,35.30
2018-12-26T05:40:23.699Z,39.93
2018-12-26T05:43:04.749Z,35.23
2018-12-26T05:45:45.992Z,37.40
2018-12-26T05:48:27.138Z,42.07
2018-12-26T05:51:08.916Z,37.40
2018-12-26T05:53:50.605Z,35.37
2018-12-26T05:56:31.985Z,36.00
2018-12-26T05:59:16.631Z,36.70
2018-12-26T06:01:58.428Z,36.00
2018-12-26T06:04:39.866Z,36.37
2018-12-26T06:07:20.850Z,37.37
2018-12-26T06:10:02.315Z,37.73
2018-12-26T06:12:43.694Z,32.40
2018-12-26T06:15:24.816Z,36.80
2018-12-26T06:18:06.057Z,35.33
2018-12-26T06:20:50.680Z,37.83
2018-12-26T06:23:32.179Z,33.10
2018-12-26T06:26:13.616Z,33.47
2018-12-26T06:28:55.026Z,35.10
2018-12-26T06:31:36.179Z,31.10
2018-12-26T06:34:17.229Z,33.00
2018-12-26T06:36:58.648Z,34.07
2018-12-26T06:39:39.765Z,38.47
2018-12-26T06:42:21.335Z,36.43
2018-12-26T06:45:02.868Z,36.67
2018-12-26T06:47:44.523Z,34.10
2018-12-26T06:50:26.251Z,33.17
2018-12-26T06:53:07.232Z,35.07
2018-12-26T06:55:48.674Z,33.23
2018-12-26T06:58:29.951Z,36.73
2018-12-26T07:04:49.531Z,33.27
2018-12-26T07:07:30.627Z,36.33
2018-12-26T07:10:11.681Z,36.10
2018-12-26T07:12:53.276Z,30.90
2018-12-26T07:15:34.757Z,32.23
2018-12-26T07:18:16.724Z,35.93
2018-12-26T07:20:58.169Z,38.90
2018-12-26T07:23:39.203Z,33.13
2018-12-26T07:26:20.724Z,32.90
2018-12-26T07:29:02.313Z,35.63
2018-12-26T07:31:43.878Z,41.00
2018-12-26T07:34:25.047Z,33.10
2018-12-26T07:37:06.587Z,32.70
2018-12-26T07:39:47.727Z,39.00
2018-12-26T07:42:29.096Z,27.80
2018-12-26T07:45:10.684Z,33.10
2018-12-26T07:51:31.355Z,36.17
2018-12-26T08:01:03.008Z,34.33
2018-12-26T08:03:44.703Z,32.70
2018-12-26T08:09:32.251Z,31.63
2018-12-26T08:15:19.639Z,32.87
2018-12-26T08:18:01.300Z,34.97
2018-12-26T08:20:42.507Z,37.20
2018-12-26T08:23:23.842Z,32.83
2018-12-26T08:26:04.888Z,42.83
2018-12-26T08:28:46.520Z,28.93
2018-12-26T08:34:53.041Z,32.83
2018-12-26T08:44:01.550Z,29.67
2018-12-26T08:50:21.192Z,32.33
2018-12-26T08:53:02.910Z,32.33
2018-12-26T08:58:49.805Z,31.93
2018-12-26T09:01:31.247Z,33.03
2018-12-26T09:04:12.409Z,32.20
2018-12-26T09:06:53.728Z,27.30
2018-12-26T09:13:00.735Z,28.30
2018-12-26T09:19:02.091Z,37.07
2018-12-26T09:21:43.564Z,34.27
2018-12-26T09:24:24.916Z,29.80
2018-12-26T09:29:49.187Z,31.60
2018-12-26T09:36:09.942Z,29.90
2018-12-26T09:38:51.488Z,31.00
2018-12-26T09:41:32.882Z,33.83
2018-12-26T09:44:33.567Z,35.00
2018-12-26T09:47:15.165Z,32.67
2018-12-26T09:55:47.909Z,31.60
2018-12-26T09:58:29.687Z,33.97
2018-12-26T10:01:30.289Z,30.40
2018-12-26T10:04:12.098Z,30.80
2018-12-26T10:06:53.652Z,32.03
2018-12-26T10:12:58.037Z,29.23
2018-12-26T10:15:58.427Z,35.80
2018-12-26T10:18:59.550Z,31.00
2018-12-26T10:21:41.323Z,31.57
2018-12-26T10:24:23.120Z,29.90
2018-12-26T10:27:07.833Z,31.40
2018-12-26T10:40:27.528Z,24.80
2018-12-26T10:43:09.436Z,29.63
2018-12-26T10:46:09.907Z,28.57
2018-12-26T10:48:51.537Z,31.73
2018-12-26T10:51:33.391Z,24.73
2018-12-26T10:54:14.659Z,29.20
2018-12-26T10:56:55.799Z,26.90
2018-12-26T10:59:37.080Z,24.90
2018-12-26T11:02:18.874Z,26.93
2018-12-26T11:05:00.440Z,25.97
2018-12-26T11:10:47.267Z,28.00
2018-12-26T11:13:28.373Z,26.97
2018-12-26T11:16:09.467Z,28.40
2018-12-26T11:19:10.130Z,26.87
2018-12-26T11:21:51.987Z,26.87
2018-12-26T11:24:33.388Z,27.20
2018-12-26T11:30:17.161Z,28.90
2018-12-26T11:32:58.252Z,25.67
2018-12-26T11:35:42.616Z,24.97
2018-12-26T11:38:24.476Z,30.87
2018-12-26T11:44:14.900Z,27.83
2018-12-26T11:52:45.134Z,23.77
2018-12-26T11:55:26.543Z,25.93
2018-12-26T11:58:08.083Z,24.17
2018-12-26T12:00:49.479Z,24.40
2018-12-26T12:13:54.002Z,25.00
2018-12-26T12:19:59.446Z,25.17
2018-12-26T12:29:35.813Z,21.90
2018-12-26T12:35:39.210Z,21.60
2018-12-26T12:38:21.313Z,23.00
2018-12-26T12:44:39.898Z,26.33
2018-12-26T12:50:57.495Z,19.77
2018-12-26T13:03:47.615Z,19.60
2018-12-26T13:06:32.621Z,21.70
2018-12-26T13:09:14.417Z,26.77
2018-12-26T13:11:56.117Z,25.90
2018-12-26T13:17:58.718Z,21.77
2018-12-26T13:20:40.159Z,21.50
2018-12-26T13:23:40.563Z,18.70
2018-12-26T13:29:44.539Z,17.63
2018-12-26T13:35:35.818Z,21.80
2018-12-26T13:38:36.148Z,18.87
2018-12-26T13:41:17.800Z,21.07
2018-12-26T13:43:59.683Z,18.20
2018-12-26T13:50:01.036Z,19.30
2018-12-26T13:52:42.151Z,21.47
2018-12-26T13:55:25.286Z,17.60
2018-12-26T13:58:07.132Z,16.90
2018-12-26T14:00:49.157Z,21.77
2018-12-26T14:03:31.069Z,17.40
2018-12-26T14:06:12.791Z,15.43
2018-12-26T14:08:53.949Z,18.03
2018-12-26T14:11:54.960Z,16.70
2018-12-26T14:18:00.549Z,18.50
2018-12-26T14:21:01.056Z,19.83
2018-12-26T14:27:09.052Z,16.70
2018-12-26T14:36:39.136Z,18.37
2018-12-26T14:42:42.949Z,20.50
2018-12-26T14:45:43.892Z,21.50
2018-12-26T14:51:48.894Z,18.77
2018-12-26T14:54:30.632Z,20.13
2018-12-26T14:57:12.185Z,19.60
2018-12-26T14:59:54.976Z,18.10
2018-12-26T15:02:55.870Z,15.73
2018-12-26T15:06:00.333Z,19.80
2018-12-26T15:11:25.765Z,17.53
2018-12-26T15:14:26.005Z,17.20
2018-12-26T15:20:32.730Z,20.70
2018-12-26T15:23:14.595Z,24.80
2018-12-26T15:25:56.564Z,19.13
2018-12-26T15:32:21.117Z,21.23
2018-12-26T15:35:03.545Z,19.33
2018-12-26T15:37:44.942Z,22.50
2018-12-26T15:44:05.581Z,21.20
2018-12-26T15:46:46.687Z,20.37
2018-12-26T15:49:27.681Z,20.03
2018-12-26T15:52:09.035Z,19.37
2018-12-26T16:01:36.890Z,18.07
2018-12-26T16:04:18.248Z,21.03
2018-12-26T16:06:59.509Z,20.33
2018-12-26T16:09:41.470Z,19.53
2018-12-26T16:12:22.543Z,20.23
2018-12-26T16:15:04.351Z,19.67
2018-12-26T16:17:45.389Z,21.03
2018-12-26T16:20:26.491Z,19.43
2018-12-26T16:23:10.922Z,18.50
2018-12-26T16:25:52.926Z,17.10
2018-12-26T16:28:34.344Z,17.93
2018-12-26T16:31:15.944Z,20.70
2018-12-26T16:33:57.499Z,19.03
2018-12-26T16:36:39.046Z,20.93
2018-12-26T16:39:20.421Z,17.70
2018-12-26T16:44:45.024Z,17.50
2018-12-26T16:47:26.515Z,21.23
2018-12-26T16:50:08.387Z,18.67
2018-12-26T16:52:50.143Z,19.20
2018-12-26T16:55:31.410Z,18.63
2018-12-26T16:58:12.627Z,20.10
2018-12-26T17:00:55.207Z,16.87
2018-12-26T17:03:36.630Z,20.07
2018-12-26T17:06:17.822Z,17.77
2018-12-26T17:08:59.478Z,17.00
2018-12-26T17:11:40.589Z,17.30
2018-12-26T17:14:22.264Z,21.07
2018-12-26T17:17:03.387Z,22.23
2018-12-26T17:19:44.476Z,18.00
2018-12-26T17:22:28.972Z,25.00
2018-12-26T17:25:10.621Z,20.27
2018-12-26T17:27:52.059Z,17.27
2018-12-26T17:30:33.149Z,18.00
2018-12-26T17:33:14.463Z,20.00
2018-12-26T17:35:56.100Z,16.47
2018-12-26T17:38:37.704Z,19.93
2018-12-26T17:41:18.751Z,21.10
2018-12-26T17:44:00.297Z,17.93
2018-12-26T17:46:41.997Z,16.90
2018-12-26T17:49:23.904Z,19.70
2018-12-26T17:52:05.921Z,22.17
2018-12-26T17:54:47.008Z,30.33
2018-12-26T17:57:28.900Z,28.07
2018-12-26T18:00:10.395Z,23.43
2018-12-26T18:02:52.187Z,19.03
2018-12-26T18:05:33.483Z,18.77
2018-12-26T18:08:14.988Z,18.47
2018-12-26T18:10:56.947Z,17.70
2018-12-26T18:13:38.520Z,18.27
2018-12-26T18:16:19.808Z,34.63
2018-12-26T18:19:01.163Z,22.13
2018-12-26T18:21:45.636Z,19.83
2018-12-26T18:24:27.423Z,19.00
2018-12-26T18:27:08.696Z,17.47
2018-12-26T18:29:50.149Z,17.00
2018-12-26T18:32:31.568Z,17.77
2018-12-26T18:35:12.848Z,19.00
2018-12-26T18:37:54.018Z,20.20
2018-12-26T18:40:35.609Z,18.07
2018-12-26T18:43:16.987Z,19.70
2018-12-26T18:45:58.218Z,16.83
2018-12-26T18:48:40.219Z,18.60
2018-12-26T18:51:22.120Z,21.03
2018-12-26T18:54:04.050Z,18.83
2018-12-26T18:56:46.054Z,17.83
2018-12-26T18:59:28.022Z,16.70
2018-12-26T19:02:10.064Z,22.13
2018-12-26T19:04:51.987Z,18.00
2018-12-26T19:07:33.267Z,17.07
2018-12-26T19:10:16.884Z,15.80
2018-12-26T19:13:02.007Z,15.60
2018-12-26T19:15:43.353Z,19.90
2018-12-26T19:18:24.652Z,16.90
2018-12-26T19:24:44.599Z,17.77
2018-12-26T19:27:26.639Z,15.57
2018-12-26T19:30:08.399Z,17.00
2018-12-26T19:32:50.316Z,17.00
2018-12-26T19:35:31.427Z,16.67
2018-12-26T19:38:12.900Z,19.70
2018-12-26T19:40:54.183Z,20.53
2018-12-26T19:43:35.896Z,21.93
2018-12-26T19:46:16.925Z,18.80
2018-12-26T19:48:58.285Z,17.30
2018-12-26T19:51:40.235Z,20.13
2018-12-26T19:54:21.443Z,16.13
2018-12-26T19:57:03.300Z,18.17
2018-12-26T19:59:45.166Z,18.20
2018-12-26T20:02:26.679Z,16.57
2018-12-26T20:05:07.781Z,16.20
2018-12-26T20:07:48.906Z,18.87
2018-12-26T20:10:29.963Z,20.80
2018-12-26T20:13:11.486Z,18.57
2018-12-26T20:15:52.659Z,18.90
2018-12-26T20:18:34.458Z,17.83
2018-12-26T20:21:15.508Z,18.10
2018-12-26T20:23:57.200Z,19.40
2018-12-26T20:26:38.411Z,19.00
2018-12-26T20:29:19.692Z,42.33
2018-12-26T20:32:00.909Z,21.40
2018-12-26T20:34:42.149Z,19.00
2018-12-26T20:37:23.708Z,19.90
2018-12-26T20:40:04.967Z,19.67
2018-12-26T20:42:46.301Z,21.20
2018-12-26T20:45:27.585Z,20.47
2018-12-26T20:48:08.785Z,19.13
2018-12-26T20:50:50.316Z,19.70
2018-12-26T20:53:31.730Z,17.60
2018-12-26T20:56:13.018Z,18.20
2018-12-26T20:58:54.251Z,16.50
2018-12-26T21:01:35.649Z,19.90
2018-12-26T21:04:17.235Z,19.13
2018-12-26T21:06:59.248Z,25.90
2018-12-26T21:09:41.215Z,22.13
2018-12-26T21:12:22.634Z,18.23
2018-12-26T21:15:04.188Z,17.90
2018-12-26T21:17:45.867Z,18.53
2018-12-26T21:20:27.329Z,23.67
2018-12-26T21:23:08.692Z,18.27
2018-12-26T21:25:49.896Z,19.77
2018-12-26T21:28:31.766Z,19.97
2018-12-26T21:31:13.712Z,19.97
2018-12-26T21:33:54.798Z,18.43
2018-12-26T21:36:36.129Z,20.00
2018-12-26T21:39:17.173Z,20.37
2018-12-26T21:41:58.448Z,18.63
2018-12-26T21:44:39.898Z,20.73
2018-12-26T21:47:20.943Z,15.73
2018-12-26T21:50:02.300Z,19.10
2018-12-26T21:52:44.367Z,17.00
2018-12-26T21:55:25.423Z,19.77
2018-12-26T21:58:06.849Z,16.63
2018-12-26T22:00:48.730Z,17.10
2018-12-26T22:03:29.728Z,19.30
2018-12-26T22:06:10.929Z,16.47
2018-12-26T22:08:52.293Z,18.63
2018-12-26T22:11:33.724Z,16.10
2018-12-26T22:14:14.822Z,18.93
2018-12-26T22:16:56.227Z,16.00
2018-12-26T22:19:37.509Z,17.13
2018-12-26T22:22:19.372Z,17.10
2018-12-26T22:25:00.656Z,17.23
2018-12-26T22:27:42.128Z,17.20
2018-12-26T22:30:24.048Z,23.30
2018-12-26T22:33:05.351Z,19.83
2018-12-26T22:35:46.734Z,21.67
2018-12-26T22:38:28.014Z,21.30
2018-12-26T22:41:09.856Z,19.07
2018-12-26T22:43:50.984Z,18.23
2018-12-26T22:46:32.217Z,17.03
2018-12-26T22:49:13.356Z,18.23
2018-12-26T22:51:55.288Z,19.93
2018-12-26T22:54:36.264Z,28.50
2018-12-26T22:57:17.670Z,22.63
2018-12-26T23:00:02.127Z,20.30
2018-12-26T23:02:44.162Z,18.70
2018-12-26T23:05:25.188Z,21.50
2018-12-26T23:08:06.444Z,19.47
2018-12-26T23:10:47.995Z,25.63
2018-12-26T23:13:29.832Z,22.00
2018-12-26T23:16:11.189Z,22.47
2018-12-26T23:18:52.201Z,24.00
2018-12-26T23:21:33.527Z,20.30
2018-12-26T23:24:15.468Z,17.90
2018-12-26T23:26:56.509Z,16.40
2018-12-26T23:29:38.511Z,18.23
2018-12-26T23:32:20.207Z,19.40
2018-12-26T23:35:02.043Z,18.77
2018-12-26T23:37:43.408Z,22.27
2018-12-26T23:40:25.463Z,20.30
2018-12-26T23:43:07.391Z,16.60
2018-12-26T23:45:48.804Z,20.00
2018-12-26T23:48:30.468Z,19.00
2018-12-26T23:51:11.573Z,18.10
2018-12-26T23:53:52.930Z,23.43
2018-12-26T23:56:34.055Z,18.77
2018-12-26T23:59:15.345Z,19.77
